sensor_id;sensor_type;location;lat;lon;timestamp;pressure;altitude;pressure_sealevel;temperature;humidity
77227;BME280;66234;47.642;19.144;2024-03-02T00:01:44;99724.31;;;8.81;100.00
77227;BME280;66234;47.642;19.144;2024-03-02T00:04:47;99737.69;;;8.68;100.00
77227;BME280;66234;47.642;19.144;2024-03-02T00:07:59;99740.75;;;8.52;100.00
77227;BME280;66234;47.642;19.144;2024-03-02T00:11:02;99746.50;;;8.35;100.00
77227;BME280;66234;47.642;19.144;2024-03-02T00:14:05;99740.72;;;8.19;100.00
77227;BME280;66234;47.642;19.144;2024-03-02T00:17:17;99744.19;;;8.13;100.00
77227;BME280;66234;47.642;19.144;2024-03-02T00:20:23;99731.09;;;8.18;100.00
77227;BME280;66234;47.642;19.144;2024-03-02T00:23:30;99733.97;;;8.23;100.00
77227;BME280;66234;47.642;19.144;2024-03-02T00:26:35;99726.41;;;8.26;100.00
77227;BME280;66234;47.642;19.144;2024-03-02T00:29:40;99720.47;;;8.24;100.00
77227;BME280;66234;47.642;19.144;2024-03-02T00:32:46;99728.06;;;8.27;100.00
77227;BME280;66234;47.642;19.144;2024-03-02T00:35:49;99720.09;;;8.27;100.00
77227;BME280;66234;47.642;19.144;2024-03-02T00:38:53;99728.28;;;8.26;100.00
77227;BME280;66234;47.642;19.144;2024-03-02T00:41:57;99724.34;;;8.22;100.00
77227;BME280;66234;47.642;19.144;2024-03-02T00:45:07;99741.75;;;8.24;100.00
77227;BME280;66234;47.642;19.144;2024-03-02T00:48:10;99728.28;;;8.26;100.00
77227;BME280;66234;47.642;19.144;2024-03-02T00:51:13;99727.00;;;8.22;100.00
77227;BME280;66234;47.642;19.144;2024-03-02T00:54:22;99743.59;;;8.17;100.00
77227;BME280;66234;47.642;19.144;2024-03-02T00:57:30;99743.78;;;8.09;100.00
77227;BME280;66234;47.642;19.144;2024-03-02T01:00:34;99739.72;;;8.13;100.00
77227;BME280;66234;47.642;19.144;2024-03-02T01:03:37;99733.75;;;8.18;100.00
77227;BME280;66234;47.642;19.144;2024-03-02T01:06:39;99734.56;;;8.18;100.00
77227;BME280;66234;47.642;19.144;2024-03-02T01:09:42;99729.44;;;8.17;100.00
77227;BME280;66234;47.642;19.144;2024-03-02T01:12:45;99734.59;;;8.12;100.00
77227;BME280;66234;47.642;19.144;2024-03-02T01:15:47;99737.66;;;8.09;100.00
77227;BME280;66234;47.642;19.144;2024-03-02T01:18:50;99732.72;;;8.12;100.00
77227;BME280;66234;47.642;19.144;2024-03-02T01:21:53;99717.38;;;8.21;100.00
77227;BME280;66234;47.642;19.144;2024-03-02T01:24:56;99712.47;;;8.31;100.00
77227;BME280;66234;47.642;19.144;2024-03-02T01:27:58;99699.56;;;8.41;100.00
77227;BME280;66234;47.642;19.144;2024-03-02T01:31:01;99703.47;;;8.45;100.00
77227;BME280;66234;47.642;19.144;2024-03-02T01:34:05;99696.91;;;8.41;100.00
77227;BME280;66234;47.642;19.144;2024-03-02T01:37:09;99699.38;;;8.36;100.00
77227;BME280;66234;47.642;19.144;2024-03-02T01:40:12;99699.38;;;8.29;100.00
77227;BME280;66234;47.642;19.144;2024-03-02T01:43:14;99699.56;;;8.41;100.00
77227;BME280;66234;47.642;19.144;2024-03-02T01:46:17;99687.25;;;8.47;100.00
77227;BME280;66234;47.642;19.144;2024-03-02T01:49:20;99679.47;;;8.52;100.00
77227;BME280;66234;47.642;19.144;2024-03-02T01:52:23;99676.81;;;8.45;100.00
77227;BME280;66234;47.642;19.144;2024-03-02T01:55:25;99683.38;;;8.36;100.00
77227;BME280;66234;47.642;19.144;2024-03-02T01:58:29;99689.75;;;8.28;100.00
77227;BME280;66234;47.642;19.144;2024-03-02T02:01:31;99692.22;;;8.30;100.00
77227;BME280;66234;47.642;19.144;2024-03-02T02:04:34;99700.59;;;8.27;100.00
77227;BME280;66234;47.642;19.144;2024-03-02T02:07:36;99698.38;;;8.30;100.00
77227;BME280;66234;47.642;19.144;2024-03-02T02:10:39;99701.03;;;8.30;100.00
77227;BME280;66234;47.642;19.144;2024-03-02T02:13:42;99693.25;;;8.29;100.00
77227;BME280;66234;47.642;19.144;2024-03-02T02:16:45;99688.50;;;8.38;100.00
77227;BME280;66234;47.642;19.144;2024-03-02T02:19:48;99697.53;;;8.30;100.00
77227;BME280;66234;47.642;19.144;2024-03-02T02:22:54;99706.75;;;8.27;100.00
77227;BME280;66234;47.642;19.144;2024-03-02T02:25:57;99702.41;;;8.20;100.00
77227;BME280;66234;47.642;19.144;2024-03-02T02:28:59;99700.81;;;8.25;100.00
77227;BME280;66234;47.642;19.144;2024-03-02T02:32:03;99705.53;;;8.30;100.00
77227;BME280;66234;47.642;19.144;2024-03-02T02:35:06;99707.78;;;8.33;100.00
77227;BME280;66234;47.642;19.144;2024-03-02T02:38:09;99709.63;;;8.39;100.00
77227;BME280;66234;47.642;19.144;2024-03-02T02:41:12;99700.78;;;8.38;100.00
77227;BME280;66234;47.642;19.144;2024-03-02T02:44:15;99701.41;;;8.41;100.00
77227;BME280;66234;47.642;19.144;2024-03-02T02:47:17;99694.47;;;8.46;100.00
77227;BME280;66234;47.642;19.144;2024-03-02T02:50:20;99695.66;;;8.44;100.00
77227;BME280;66234;47.642;19.144;2024-03-02T02:53:23;99696.50;;;8.44;100.00
77227;BME280;66234;47.642;19.144;2024-03-02T02:56:26;99688.72;;;8.43;100.00
77227;BME280;66234;47.642;19.144;2024-03-02T02:59:28;99698.94;;;8.52;100.00
77227;BME280;66234;47.642;19.144;2024-03-02T03:02:31;99704.69;;;8.49;100.00
77227;BME280;66234;47.642;19.144;2024-03-02T03:05:33;99700.59;;;8.47;100.00
77227;BME280;66234;47.642;19.144;2024-03-02T03:08:36;99704.06;;;8.41;100.00
77227;BME280;66234;47.642;19.144;2024-03-02T03:11:39;99701.81;;;8.38;100.00
77227;BME280;66234;47.642;19.144;2024-03-02T03:14:41;99705.72;;;8.35;100.00
77227;BME280;66234;47.642;19.144;2024-03-02T03:17:44;99709.63;;;8.46;100.00
77227;BME280;66234;47.642;19.144;2024-03-02T03:20:48;99712.06;;;8.47;100.00
77227;BME280;66234;47.642;19.144;2024-03-02T03:23:51;99717.41;;;8.47;100.00
77227;BME280;66234;47.642;19.144;2024-03-02T03:26:53;99715.16;;;8.44;100.00
77227;BME280;66234;47.642;19.144;2024-03-02T03:29:56;99710.66;;;8.45;100.00
77227;BME280;66234;47.642;19.144;2024-03-02T03:32:58;99713.50;;;8.43;100.00
77227;BME280;66234;47.642;19.144;2024-03-02T03:36:01;99713.31;;;8.45;100.00
77227;BME280;66234;47.642;19.144;2024-03-02T03:39:05;99713.50;;;8.43;100.00
77227;BME280;66234;47.642;19.144;2024-03-02T03:42:08;99713.09;;;8.46;100.00
77227;BME280;66234;47.642;19.144;2024-03-02T03:45:11;99713.69;;;8.48;100.00
77227;BME280;66234;47.642;19.144;2024-03-02T03:48:13;99711.88;;;8.55;100.00
77227;BME280;66234;47.642;19.144;2024-03-02T03:51:16;99714.50;;;8.68;100.00
77227;BME280;66234;47.642;19.144;2024-03-02T03:54:18;99718.00;;;8.62;100.00
77227;BME280;66234;47.642;19.144;2024-03-02T03:57:21;99723.53;;;8.61;100.00
77227;BME280;66234;47.642;19.144;2024-03-02T04:00:24;99723.72;;;8.53;100.00
77227;BME280;66234;47.642;19.144;2024-03-02T04:03:26;99726.41;;;8.59;100.00
77227;BME280;66234;47.642;19.144;2024-03-02T04:06:29;99722.09;;;8.52;100.00
77227;BME280;66234;47.642;19.144;2024-03-02T04:09:32;99726.00;;;8.49;100.00
77227;BME280;66234;47.642;19.144;2024-03-02T04:12:36;99735.00;;;8.48;100.00
77227;BME280;66234;47.642;19.144;2024-03-02T04:15:39;99737.09;;;8.46;100.00
77227;BME280;66234;47.642;19.144;2024-03-02T04:18:42;99734.41;;;8.46;100.00
77227;BME280;66234;47.642;19.144;2024-03-02T04:21:45;99736.22;;;8.59;100.00
77227;BME280;66234;47.642;19.144;2024-03-02T04:24:48;99743.00;;;8.55;100.00
77227;BME280;66234;47.642;19.144;2024-03-02T04:27:50;99741.78;;;8.51;100.00
77227;BME280;66234;47.642;19.144;2024-03-02T04:30:53;99751.00;;;8.61;100.00
77227;BME280;66234;47.642;19.144;2024-03-02T04:33:56;99740.13;;;8.63;100.00
77227;BME280;66234;47.642;19.144;2024-03-02T04:36:59;99743.22;;;8.66;100.00
77227;BME280;66234;47.642;19.144;2024-03-02T04:40:04;99739.72;;;8.72;100.00
77227;BME280;66234;47.642;19.144;2024-03-02T04:43:10;99744.22;;;8.72;100.00
77227;BME280;66234;47.642;19.144;2024-03-02T04:46:17;99746.88;;;8.72;100.00
77227;BME280;66234;47.642;19.144;2024-03-02T04:49:19;99747.09;;;8.70;100.00
77227;BME280;66234;47.642;19.144;2024-03-02T04:52:22;99750.38;;;8.66;100.00
77227;BME280;66234;47.642;19.144;2024-03-02T04:55:25;99750.16;;;8.67;100.00
77227;BME280;66234;47.642;19.144;2024-03-02T04:58:47;99747.91;;;8.71;100.00
77227;BME280;66234;47.642;19.144;2024-03-02T05:01:50;99752.00;;;8.86;100.00
77227;BME280;66234;47.642;19.144;2024-03-02T05:04:53;99758.13;;;8.80;100.00
77227;BME280;66234;47.642;19.144;2024-03-02T05:07:55;99748.72;;;8.84;100.00
77227;BME280;66234;47.642;19.144;2024-03-02T05:10:58;99746.47;;;8.75;100.00
77227;BME280;66234;47.642;19.144;2024-03-02T05:14:20;99752.63;;;8.62;100.00
77227;BME280;66234;47.642;19.144;2024-03-02T05:17:23;99760.22;;;8.65;100.00
77227;BME280;66234;47.642;19.144;2024-03-02T05:20:25;99760.84;;;8.67;100.00
77227;BME280;66234;47.642;19.144;2024-03-02T05:23:28;99756.13;;;8.63;100.00
77227;BME280;66234;47.642;19.144;2024-03-02T05:26:31;99760.81;;;8.54;100.00
77227;BME280;66234;47.642;19.144;2024-03-02T05:29:33;99754.88;;;8.65;100.00
77227;BME280;66234;47.642;19.144;2024-03-02T05:32:36;99756.94;;;8.70;100.00
77227;BME280;66234;47.642;19.144;2024-03-02T05:35:38;99762.47;;;8.62;100.00
77227;BME280;66234;47.642;19.144;2024-03-02T05:38:41;99762.88;;;8.65;100.00
77227;BME280;66234;47.642;19.144;2024-03-02T05:41:43;99765.97;;;8.69;100.00
77227;BME280;66234;47.642;19.144;2024-03-02T05:44:46;99762.88;;;8.65;100.00
77227;BME280;66234;47.642;19.144;2024-03-02T05:47:49;99751.81;;;8.62;100.00
77227;BME280;66234;47.642;19.144;2024-03-02T05:50:51;99756.53;;;8.66;100.00
77227;BME280;66234;47.642;19.144;2024-03-02T05:53:54;99765.75;;;8.77;100.00
77227;BME280;66234;47.642;19.144;2024-03-02T05:56:57;99785.03;;;8.66;100.00
77227;BME280;66234;47.642;19.144;2024-03-02T06:00:19;99795.47;;;8.54;100.00
77227;BME280;66234;47.642;19.144;2024-03-02T06:03:21;99800.78;;;8.54;100.00
77227;BME280;66234;47.642;19.144;2024-03-02T06:06:24;99801.41;;;8.50;100.00
77227;BME280;66234;47.642;19.144;2024-03-02T06:09:27;99800.19;;;8.52;100.00
77227;BME280;66234;47.642;19.144;2024-03-02T06:12:31;99801.41;;;8.50;100.00
77227;BME280;66234;47.642;19.144;2024-03-02T06:15:33;99801.63;;;8.48;100.00
77227;BME280;66234;47.642;19.144;2024-03-02T06:18:38;99797.50;;;8.59;100.00
77227;BME280;66234;47.642;19.144;2024-03-02T06:21:41;99802.25;;;8.63;100.00
77227;BME280;66234;47.642;19.144;2024-03-02T06:24:44;99795.28;;;8.62;100.00
77227;BME280;66234;47.642;19.144;2024-03-02T06:27:50;99791.41;;;8.65;100.00
77227;BME280;66234;47.642;19.144;2024-03-02T06:30:53;99800.59;;;8.75;100.00
77227;BME280;66234;47.642;19.144;2024-03-02T06:33:56;99811.28;;;8.82;100.00
77227;BME280;66234;47.642;19.144;2024-03-02T06:37:00;99803.44;;;8.80;100.00
77227;BME280;66234;47.642;19.144;2024-03-02T06:40:03;99803.06;;;8.83;100.00
77227;BME280;66234;47.642;19.144;2024-03-02T06:43:08;99808.59;;;8.82;100.00
77227;BME280;66234;47.642;19.144;2024-03-02T06:46:11;99808.16;;;8.91;100.00
77227;BME280;66234;47.642;19.144;2024-03-02T06:49:17;99814.53;;;8.84;100.00
77227;BME280;66234;47.642;19.144;2024-03-02T06:52:20;99809.00;;;8.92;100.00
77227;BME280;66234;47.642;19.144;2024-03-02T06:55:26;99810.81;;;8.91;100.00
77227;BME280;66234;47.642;19.144;2024-03-02T06:58:29;99804.06;;;8.95;100.00
77227;BME280;66234;47.642;19.144;2024-03-02T07:01:31;99808.53;;;9.14;100.00
77227;BME280;66234;47.642;19.144;2024-03-02T07:04:34;99807.09;;;9.25;100.00
77227;BME280;66234;47.642;19.144;2024-03-02T07:07:37;99813.00;;;9.33;100.00
77227;BME280;66234;47.642;19.144;2024-03-02T07:10:40;99815.06;;;9.31;100.00
77227;BME280;66234;47.642;19.144;2024-03-02T07:13:42;99809.06;;;9.42;100.00
77227;BME280;66234;47.642;19.144;2024-03-02T07:16:45;99812.75;;;9.54;100.00
77227;BME280;66234;47.642;19.144;2024-03-02T07:19:48;99811.31;;;9.45;100.00
77227;BME280;66234;47.642;19.144;2024-03-02T07:22:50;99814.47;;;9.36;100.00
77227;BME280;66234;47.642;19.144;2024-03-02T07:25:56;99821.38;;;9.50;100.00
77227;BME280;66234;47.642;19.144;2024-03-02T07:29:01;99815.22;;;9.49;100.00
77227;BME280;66234;47.642;19.144;2024-03-02T07:32:04;99809.28;;;9.47;100.00
77227;BME280;66234;47.642;19.144;2024-03-02T07:35:07;99815.59;;;9.59;100.00
77227;BME280;66234;47.642;19.144;2024-03-02T07:38:10;99811.28;;;9.65;100.00
77227;BME280;66234;47.642;19.144;2024-03-02T07:41:15;99810.84;;;9.68;100.00
77227;BME280;66234;47.642;19.144;2024-03-02T07:44:19;99821.50;;;9.74;100.00
77227;BME280;66234;47.642;19.144;2024-03-02T07:47:22;99817.16;;;9.80;100.00
77227;BME280;66234;47.642;19.144;2024-03-02T07:50:25;99826.88;;;9.68;100.00
77227;BME280;66234;47.642;19.144;2024-03-02T07:53:27;99825.59;;;9.77;100.00
77227;BME280;66234;47.642;19.144;2024-03-02T07:56:30;99826.47;;;9.64;100.00
77227;BME280;66234;47.642;19.144;2024-03-02T07:59:34;99826.91;;;9.55;100.00
77227;BME280;66234;47.642;19.144;2024-03-02T08:02:37;99827.50;;;9.63;100.00
77227;BME280;66234;47.642;19.144;2024-03-02T08:05:39;99829.13;;;9.58;100.00
77227;BME280;66234;47.642;19.144;2024-03-02T08:08:42;99832.84;;;9.57;100.00
77227;BME280;66234;47.642;19.144;2024-03-02T08:11:44;99841.28;;;9.54;100.00
77227;BME280;66234;47.642;19.144;2024-03-02T08:14:47;99841.28;;;9.47;100.00
77227;BME280;66234;47.642;19.144;2024-03-02T08:17:49;99845.16;;;9.51;100.00
77227;BME280;66234;47.642;19.144;2024-03-02T08:20:52;99842.13;;;9.54;100.00
77227;BME280;66234;47.642;19.144;2024-03-02T08:23:55;99845.16;;;9.51;100.00
77227;BME280;66234;47.642;19.144;2024-03-02T08:26:59;99843.94;;;9.54;100.00
77227;BME280;66234;47.642;19.144;2024-03-02T08:30:02;99847.47;;;9.48;100.00
77227;BME280;66234;47.642;19.144;2024-03-02T08:33:10;99852.16;;;9.52;100.00
77227;BME280;66234;47.642;19.144;2024-03-02T08:36:12;99850.91;;;9.55;100.00
77227;BME280;66234;47.642;19.144;2024-03-02T08:39:15;99848.03;;;9.56;100.00
77227;BME280;66234;47.642;19.144;2024-03-02T08:42:18;99843.34;;;9.52;100.00
77227;BME280;66234;47.642;19.144;2024-03-02T08:45:21;99855.03;;;9.57;100.00
77227;BME280;66234;47.642;19.144;2024-03-02T08:48:24;99846.84;;;9.52;100.00
77227;BME280;66234;47.642;19.144;2024-03-02T08:51:27;99852.16;;;9.59;100.00
77227;BME280;66234;47.642;19.144;2024-03-02T08:54:29;99864.88;;;9.57;100.00
77227;BME280;66234;47.642;19.144;2024-03-02T08:57:32;99841.06;;;9.62;100.00
77227;BME280;66234;47.642;19.144;2024-03-02T09:00:35;99856.66;;;9.65;100.00
77227;BME280;66234;47.642;19.144;2024-03-02T09:03:38;99848.44;;;9.66;100.00
77227;BME280;66234;47.642;19.144;2024-03-02T09:06:40;99845.75;;;9.66;100.00
77227;BME280;66234;47.642;19.144;2024-03-02T09:09:43;99855.38;;;9.74;100.00
77227;BME280;66234;47.642;19.144;2024-03-02T09:12:46;99842.44;;;9.77;100.00
77227;BME280;66234;47.642;19.144;2024-03-02T09:15:48;99842.75;;;9.94;100.00
77227;BME280;66234;47.642;19.144;2024-03-02T09:18:51;99850.91;;;10.05;100.00
77227;BME280;66234;47.642;19.144;2024-03-02T09:21:53;99842.00;;;10.25;100.00
77227;BME280;66234;47.642;19.144;2024-03-02T09:24:58;99846.38;;;10.19;100.00
77227;BME280;66234;47.642;19.144;2024-03-02T09:28:01;99842.22;;;10.23;100.00
77227;BME280;66234;47.642;19.144;2024-03-02T09:31:04;99844.03;;;10.29;100.00
77227;BME280;66234;47.642;19.144;2024-03-02T09:34:07;99846.25;;;10.39;100.00
77227;BME280;66234;47.642;19.144;2024-03-02T09:37:11;99849.34;;;10.67;100.00
77227;BME280;66234;47.642;19.144;2024-03-02T09:40:13;99845.31;;;10.82;100.00
77227;BME280;66234;47.642;19.144;2024-03-02T09:43:16;99847.81;;;10.77;100.00
77227;BME280;66234;47.642;19.144;2024-03-02T09:46:19;99846.97;;;10.77;100.00
77227;BME280;66234;47.642;19.144;2024-03-02T09:49:22;99852.41;;;10.70;100.00
77227;BME280;66234;47.642;19.144;2024-03-02T09:52:30;99849.13;;;10.68;100.00
77227;BME280;66234;47.642;19.144;2024-03-02T09:55:33;99850.91;;;10.74;100.00
77227;BME280;66234;47.642;19.144;2024-03-02T09:58:36;99851.25;;;10.84;100.00
77227;BME280;66234;47.642;19.144;2024-03-02T10:01:38;99848.63;;;10.78;100.00
77227;BME280;66234;47.642;19.144;2024-03-02T10:04:41;99851.84;;;10.62;100.00
77227;BME280;66234;47.642;19.144;2024-03-02T10:07:58;99850.03;;;10.56;100.00
77227;BME280;66234;47.642;19.144;2024-03-02T10:11:01;99847.97;;;10.58;100.00
77227;BME280;66234;47.642;19.144;2024-03-02T10:14:07;99851.50;;;10.52;100.00
77227;BME280;66234;47.642;19.144;2024-03-02T10:17:14;99847.66;;;10.41;100.00
77227;BME280;66234;47.642;19.144;2024-03-02T10:20:22;99843.94;;;10.49;100.00
77227;BME280;66234;47.642;19.144;2024-03-02T10:23:25;99852.75;;;10.49;100.00
77227;BME280;66234;47.642;19.144;2024-03-02T10:26:29;99848.28;;;10.68;100.00
77227;BME280;66234;47.642;19.144;2024-03-02T10:29:31;99843.38;;;10.65;100.00
77227;BME280;66234;47.642;19.144;2024-03-02T10:32:34;99847.09;;;10.64;100.00
77227;BME280;66234;47.642;19.144;2024-03-02T10:35:38;99838.97;;;10.77;100.00
77227;BME280;66234;47.642;19.144;2024-03-02T10:38:41;99839.50;;;10.61;100.00
77227;BME280;66234;47.642;19.144;2024-03-02T10:41:44;99835.91;;;10.49;100.00
77227;BME280;66234;47.642;19.144;2024-03-02T10:44:48;99838.28;;;10.57;100.00
77227;BME280;66234;47.642;19.144;2024-03-02T10:47:51;99833.34;;;10.29;100.00
77227;BME280;66234;47.642;19.144;2024-03-02T10:50:54;99833.88;;;10.13;100.00
77227;BME280;66234;47.642;19.144;2024-03-02T10:54:02;99830.94;;;10.21;100.00
77227;BME280;66234;47.642;19.144;2024-03-02T10:57:07;99837.34;;;10.14;100.00
77227;BME280;66234;47.642;19.144;2024-03-02T11:00:12;99835.44;;;10.27;100.00
77227;BME280;66234;47.642;19.144;2024-03-02T11:03:18;99834.94;;;10.37;100.00
77227;BME280;66234;47.642;19.144;2024-03-02T11:06:22;99834.13;;;10.36;100.00
77227;BME280;66234;47.642;19.144;2024-03-02T11:09:28;99834.25;;;10.17;100.00
77227;BME280;66234;47.642;19.144;2024-03-02T11:12:47;99833.88;;;10.13;100.00
77227;BME280;66234;47.642;19.144;2024-03-02T11:15:54;99831.00;;;10.15;100.00
77227;BME280;66234;47.642;19.144;2024-03-02T11:18:58;99833.03;;;10.13;100.00
77227;BME280;66234;47.642;19.144;2024-03-02T11:22:02;99825.44;;;10.16;100.00
77227;BME280;66234;47.642;19.144;2024-03-02T11:25:22;99830.47;;;10.31;100.00
77227;BME280;66234;47.642;19.144;2024-03-02T11:28:35;99826.38;;;10.28;100.00
77227;BME280;66234;47.642;19.144;2024-03-02T11:31:57;99821.56;;;10.37;100.00
77227;BME280;66234;47.642;19.144;2024-03-02T11:35:02;99822.88;;;10.59;100.00
77227;BME280;66234;47.642;19.144;2024-03-02T11:38:06;99817.06;;;10.62;100.00
77227;BME280;66234;47.642;19.144;2024-03-02T11:41:09;99813.09;;;10.71;100.00
77227;BME280;66234;47.642;19.144;2024-03-02T11:44:12;99806.28;;;10.75;100.00
77227;BME280;66234;47.642;19.144;2024-03-02T11:47:16;99813.44;;;10.81;100.00
77227;BME280;66234;47.642;19.144;2024-03-02T11:50:36;99811.91;;;10.91;100.00
77227;BME280;66234;47.642;19.144;2024-03-02T11:53:44;99809.44;;;10.90;100.00
77227;BME280;66234;47.642;19.144;2024-03-02T11:56:48;99806.44;;;11.04;100.00
77227;BME280;66234;47.642;19.144;2024-03-02T11:59:51;99801.03;;;10.86;100.00
77227;BME280;66234;47.642;19.144;2024-03-02T12:03:21;99807.66;;;10.84;100.00
77227;BME280;66234;47.642;19.144;2024-03-02T12:06:23;99815.28;;;10.80;100.00
77227;BME280;66234;47.642;19.144;2024-03-02T12:09:29;99808.84;;;10.88;100.00
77227;BME280;66234;47.642;19.144;2024-03-02T12:12:32;99809.31;;;10.78;100.00
77227;BME280;66234;47.642;19.144;2024-03-02T12:15:36;99804.84;;;10.72;100.00
77227;BME280;66234;47.642;19.144;2024-03-02T12:18:41;99799.22;;;10.80;100.00
77227;BME280;66234;47.642;19.144;2024-03-02T12:21:45;99801.31;;;10.78;100.00
77227;BME280;66234;47.642;19.144;2024-03-02T12:24:48;99807.97;;;10.69;100.00
77227;BME280;66234;47.642;19.144;2024-03-02T12:27:54;99806.72;;;10.72;100.00
77227;BME280;66234;47.642;19.144;2024-03-02T12:30:57;99812.66;;;10.74;100.00
77227;BME280;66234;47.642;19.144;2024-03-02T12:34:00;99814.22;;;10.57;100.00
77227;BME280;66234;47.642;19.144;2024-03-02T12:37:03;99808.44;;;10.60;100.00
77227;BME280;66234;47.642;19.144;2024-03-02T12:40:06;99816.97;;;10.50;100.00
77227;BME280;66234;47.642;19.144;2024-03-02T12:43:12;99812.69;;;10.43;100.00
77227;BME280;66234;47.642;19.144;2024-03-02T12:46:14;99810.41;;;10.46;100.00
77227;BME280;66234;47.642;19.144;2024-03-02T12:49:22;99814.38;;;10.37;100.00
77227;BME280;66234;47.642;19.144;2024-03-02T12:52:25;99818.16;;;10.30;100.00
77227;BME280;66234;47.642;19.144;2024-03-02T12:55:31;99814.44;;;10.31;100.00
77227;BME280;66234;47.642;19.144;2024-03-02T12:58:40;99816.34;;;10.24;100.00
77227;BME280;66234;47.642;19.144;2024-03-02T13:01:53;99815.06;;;10.26;100.00
77227;BME280;66234;47.642;19.144;2024-03-02T13:04:56;99807.19;;;10.38;100.00
77227;BME280;66234;47.642;19.144;2024-03-02T13:08:00;99812.69;;;10.43;100.00
77227;BME280;66234;47.642;19.144;2024-03-02T13:11:03;99814.59;;;10.36;100.00
77227;BME280;66234;47.642;19.144;2024-03-02T13:14:06;99812.53;;;10.38;100.00
77227;BME280;66234;47.642;19.144;2024-03-02T13:17:09;99812.44;;;10.20;100.00
77227;BME280;66234;47.642;19.144;2024-03-02T13:20:12;99810.44;;;10.09;100.00
77227;BME280;66234;47.642;19.144;2024-03-02T13:23:17;99815.72;;;10.22;100.00
77227;BME280;66234;47.642;19.144;2024-03-02T13:26:20;99808.78;;;10.14;100.00
77227;BME280;66234;47.642;19.144;2024-03-02T13:29:23;99809.44;;;10.10;100.00
77227;BME280;66234;47.642;19.144;2024-03-02T13:32:25;99819.81;;;10.24;100.00
77227;BME280;66234;47.642;19.144;2024-03-02T13:35:28;99815.53;;;10.17;100.00
77227;BME280;66234;47.642;19.144;2024-03-02T13:38:31;99819.69;;;10.13;100.00
77227;BME280;66234;47.642;19.144;2024-03-02T13:41:33;99816.84;;;10.08;100.00
77227;BME280;66234;47.642;19.144;2024-03-02T13:44:37;99812.78;;;9.92;100.00
77227;BME280;66234;47.642;19.144;2024-03-02T13:47:40;99814.47;;;9.86;100.00
77227;BME280;66234;47.642;19.144;2024-03-02T13:50:43;99817.47;;;9.96;100.00
77227;BME280;66234;47.642;19.144;2024-03-02T13:53:46;99821.59;;;9.99;100.00
77227;BME280;66234;47.642;19.144;2024-03-02T13:56:51;99824.03;;;10.00;100.00
77227;BME280;66234;47.642;19.144;2024-03-02T13:59:53;99818.06;;;10.12;100.00
77227;BME280;66234;47.642;19.144;2024-03-02T14:02:57;99817.00;;;10.13;100.00
77227;BME280;66234;47.642;19.144;2024-03-02T14:05:59;99816.19;;;10.12;100.00
77227;BME280;66234;47.642;19.144;2024-03-02T14:09:02;99828.56;;;10.00;100.00
77227;BME280;66234;47.642;19.144;2024-03-02T14:12:05;99826.56;;;9.89;100.00
77227;BME280;66234;47.642;19.144;2024-03-02T14:15:08;99829.03;;;9.84;100.00
77227;BME280;66234;47.642;19.144;2024-03-02T14:18:11;99831.13;;;9.75;100.00
77227;BME280;66234;47.642;19.144;2024-03-02T14:21:14;99827.38;;;9.89;100.00
77227;BME280;66234;47.642;19.144;2024-03-02T14:24:17;99832.41;;;9.73;100.00
77227;BME280;66234;47.642;19.144;2024-03-02T14:27:19;99836.47;;;9.75;100.00
77227;BME280;66234;47.642;19.144;2024-03-02T14:30:39;99831.16;;;9.69;100.00
77227;BME280;66234;47.642;19.144;2024-03-02T14:33:42;99832.75;;;9.76;100.00
77227;BME280;66234;47.642;19.144;2024-03-02T14:36:45;99823.78;;;9.71;100.00
77227;BME280;66234;47.642;19.144;2024-03-02T14:39:47;99829.13;;;9.64;100.00
77227;BME280;66234;47.642;19.144;2024-03-02T14:42:50;99825.69;;;9.51;100.00
77227;BME280;66234;47.642;19.144;2024-03-02T14:45:53;99828.16;;;9.52;100.00
77227;BME280;66234;47.642;19.144;2024-03-02T14:48:55;99828.94;;;9.53;100.00
77227;BME280;66234;47.642;19.144;2024-03-02T14:51:58;99831.59;;;9.59;100.00
77227;BME280;66234;47.642;19.144;2024-03-02T14:55:01;99831.00;;;9.57;100.00
77227;BME280;66234;47.642;19.144;2024-03-02T14:58:06;99828.56;;;9.49;100.00
77227;BME280;66234;47.642;19.144;2024-03-02T15:01:11;99829.34;;;9.56;100.00
77227;BME280;66234;47.642;19.144;2024-03-02T15:04:15;99834.34;;;9.46;100.00
77227;BME280;66234;47.642;19.144;2024-03-02T15:07:22;99835.53;;;9.44;100.00
77227;BME280;66234;47.642;19.144;2024-03-02T15:10:25;99837.22;;;9.45;100.00
77227;BME280;66234;47.642;19.144;2024-03-02T15:13:27;99842.69;;;9.56;100.00
77227;BME280;66234;47.642;19.144;2024-03-02T15:16:30;99831.25;;;9.49;100.00
77227;BME280;66234;47.642;19.144;2024-03-02T15:19:33;99836.97;;;9.53;100.00
77227;BME280;66234;47.642;19.144;2024-03-02T15:22:35;99833.09;;;9.42;100.00
77227;BME280;66234;47.642;19.144;2024-03-02T15:25:38;99838.22;;;9.44;100.00
77227;BME280;66234;47.642;19.144;2024-03-02T15:28:40;99844.34;;;9.57;100.00
77227;BME280;66234;47.642;19.144;2024-03-02T15:31:43;99836.97;;;9.53;100.00
77227;BME280;66234;47.642;19.144;2024-03-02T15:34:45;99829.59;;;9.48;100.00
77227;BME280;66234;47.642;19.144;2024-03-02T15:37:48;99839.25;;;9.49;100.00
77227;BME280;66234;47.642;19.144;2024-03-02T15:40:51;99843.13;;;9.47;100.00
77227;BME280;66234;47.642;19.144;2024-03-02T15:43:54;99836.16;;;9.52;100.00
77227;BME280;66234;47.642;19.144;2024-03-02T15:46:56;99838.63;;;9.47;100.00
77227;BME280;66234;47.642;19.144;2024-03-02T15:49:59;99834.75;;;9.43;100.00
77227;BME280;66234;47.642;19.144;2024-03-02T15:53:01;99831.44;;;9.54;100.00
77227;BME280;66234;47.642;19.144;2024-03-02T15:56:08;99838.22;;;9.50;100.00
77227;BME280;66234;47.642;19.144;2024-03-02T15:59:12;99838.63;;;9.47;100.00